sensor_id;sensor_type;location;lat;lon;timestamp;temperature;humidity
24250;DHT22;12379;49.820;8.648;2022-08-25T00:01:29;23.30;66.00
24250;DHT22;12379;49.820;8.648;2022-08-25T00:03:56;23.40;66.20
24250;DHT22;12379;49.820;8.648;2022-08-25T00:06:22;23.50;66.00
24250;DHT22;12379;49.820;8.648;2022-08-25T00:08:48;23.40;66.30
24250;DHT22;12379;49.820;8.648;2022-08-25T00:11:20;23.40;66.50
24250;DHT22;12379;49.820;8.648;2022-08-25T00:13:52;23.40;66.80
24250;DHT22;12379;49.820;8.648;2022-08-25T00:16:20;23.40;66.90
24250;DHT22;12379;49.820;8.648;2022-08-25T00:18:49;23.40;66.90
24250;DHT22;12379;49.820;8.648;2022-08-25T00:21:16;23.30;67.20
24250;DHT22;12379;49.820;8.648;2022-08-25T00:23:42;23.40;67.10
24250;DHT22;12379;49.820;8.648;2022-08-25T00:26:09;23.30;67.60
24250;DHT22;12379;49.820;8.648;2022-08-25T00:28:35;23.30;67.60
24250;DHT22;12379;49.820;8.648;2022-08-25T00:31:02;23.30;68.00
24250;DHT22;12379;49.820;8.648;2022-08-25T00:33:28;23.30;68.50
24250;DHT22;12379;49.820;8.648;2022-08-25T00:35:56;23.30;68.60
24250;DHT22;12379;49.820;8.648;2022-08-25T00:38:22;23.30;69.10
24250;DHT22;12379;49.820;8.648;2022-08-25T00:40:49;23.20;69.00
24250;DHT22;12379;49.820;8.648;2022-08-25T00:43:53;23.20;69.40
24250;DHT22;12379;49.820;8.648;2022-08-25T00:46:26;23.20;69.60
24250;DHT22;12379;49.820;8.648;2022-08-25T00:48:58;23.30;70.10
24250;DHT22;12379;49.820;8.648;2022-08-25T00:51:32;23.20;70.40
24250;DHT22;12379;49.820;8.648;2022-08-25T00:53:59;23.20;70.90
24250;DHT22;12379;49.820;8.648;2022-08-25T00:56:28;23.20;71.20
24250;DHT22;12379;49.820;8.648;2022-08-25T00:58:54;23.20;71.40
24250;DHT22;12379;49.820;8.648;2022-08-25T01:01:20;23.20;71.80
24250;DHT22;12379;49.820;8.648;2022-08-25T01:03:46;23.10;72.40
24250;DHT22;12379;49.820;8.648;2022-08-25T01:06:11;23.10;73.10
24250;DHT22;12379;49.820;8.648;2022-08-25T01:08:37;23.00;73.50
24250;DHT22;12379;49.820;8.648;2022-08-25T01:11:06;23.00;73.90
24250;DHT22;12379;49.820;8.648;2022-08-25T01:13:42;23.00;74.10
24250;DHT22;12379;49.820;8.648;2022-08-25T01:16:10;23.00;74.80
24250;DHT22;12379;49.820;8.648;2022-08-25T01:18:49;23.00;75.90
24250;DHT22;12379;49.820;8.648;2022-08-25T01:21:17;23.00;76.10
24250;DHT22;12379;49.820;8.648;2022-08-25T01:23:45;23.00;76.50
24250;DHT22;12379;49.820;8.648;2022-08-25T01:26:31;22.90;76.90
24250;DHT22;12379;49.820;8.648;2022-08-25T01:29:00;22.90;77.60
24250;DHT22;12379;49.820;8.648;2022-08-25T01:31:46;22.90;77.90
24250;DHT22;12379;49.820;8.648;2022-08-25T01:34:14;22.90;78.80
24250;DHT22;12379;49.820;8.648;2022-08-25T01:36:42;22.80;79.50
24250;DHT22;12379;49.820;8.648;2022-08-25T01:39:08;22.80;80.10
24250;DHT22;12379;49.820;8.648;2022-08-25T01:41:35;22.80;80.80
24250;DHT22;12379;49.820;8.648;2022-08-25T01:44:05;22.80;81.50
24250;DHT22;12379;49.820;8.648;2022-08-25T01:46:32;22.70;82.40
24250;DHT22;12379;49.820;8.648;2022-08-25T01:49:00;22.70;83.30
24250;DHT22;12379;49.820;8.648;2022-08-25T01:51:29;22.70;83.90
24250;DHT22;12379;49.820;8.648;2022-08-25T01:53:57;22.70;83.80
24250;DHT22;12379;49.820;8.648;2022-08-25T01:56:22;22.70;84.30
24250;DHT22;12379;49.820;8.648;2022-08-25T01:58:48;22.70;85.00
24250;DHT22;12379;49.820;8.648;2022-08-25T02:01:21;22.70;85.30
24250;DHT22;12379;49.820;8.648;2022-08-25T02:03:50;22.60;85.90
24250;DHT22;12379;49.820;8.648;2022-08-25T02:06:22;22.60;86.70
24250;DHT22;12379;49.820;8.648;2022-08-25T02:08:53;22.50;87.60
24250;DHT22;12379;49.820;8.648;2022-08-25T02:11:19;22.50;88.20
24250;DHT22;12379;49.820;8.648;2022-08-25T02:13:46;22.60;88.30
24250;DHT22;12379;49.820;8.648;2022-08-25T02:16:16;22.60;88.30
24250;DHT22;12379;49.820;8.648;2022-08-25T02:18:42;22.70;88.90
24250;DHT22;12379;49.820;8.648;2022-08-25T02:21:09;22.70;89.20
24250;DHT22;12379;49.820;8.648;2022-08-25T02:23:35;22.70;89.50
24250;DHT22;12379;49.820;8.648;2022-08-25T02:26:01;22.70;90.10
24250;DHT22;12379;49.820;8.648;2022-08-25T02:28:27;22.60;90.40
24250;DHT22;12379;49.820;8.648;2022-08-25T02:30:53;22.50;90.80
24250;DHT22;12379;49.820;8.648;2022-08-25T02:33:18;22.50;91.00
24250;DHT22;12379;49.820;8.648;2022-08-25T02:35:44;22.40;91.40
24250;DHT22;12379;49.820;8.648;2022-08-25T02:38:10;22.30;91.70
24250;DHT22;12379;49.820;8.648;2022-08-25T02:40:35;22.30;92.30
24250;DHT22;12379;49.820;8.648;2022-08-25T02:43:01;22.20;92.80
24250;DHT22;12379;49.820;8.648;2022-08-25T02:45:27;22.10;92.90
24250;DHT22;12379;49.820;8.648;2022-08-25T02:47:52;22.00;93.30
24250;DHT22;12379;49.820;8.648;2022-08-25T02:50:19;22.00;93.80
24250;DHT22;12379;49.820;8.648;2022-08-25T02:52:45;21.90;94.10
24250;DHT22;12379;49.820;8.648;2022-08-25T02:55:11;21.90;94.40
24250;DHT22;12379;49.820;8.648;2022-08-25T02:57:39;21.90;94.60
24250;DHT22;12379;49.820;8.648;2022-08-25T03:00:07;21.80;95.00
24250;DHT22;12379;49.820;8.648;2022-08-25T03:02:33;21.80;95.10
24250;DHT22;12379;49.820;8.648;2022-08-25T03:04:58;21.70;95.30
24250;DHT22;12379;49.820;8.648;2022-08-25T03:07:24;21.60;96.00
24250;DHT22;12379;49.820;8.648;2022-08-25T03:09:49;21.60;96.60
24250;DHT22;12379;49.820;8.648;2022-08-25T03:12:15;21.50;97.00
24250;DHT22;12379;49.820;8.648;2022-08-25T03:14:41;21.50;97.20
24250;DHT22;12379;49.820;8.648;2022-08-25T03:17:07;21.50;97.80
24250;DHT22;12379;49.820;8.648;2022-08-25T03:19:33;21.60;97.90
24250;DHT22;12379;49.820;8.648;2022-08-25T03:21:58;21.50;98.10
24250;DHT22;12379;49.820;8.648;2022-08-25T03:24:25;21.40;98.50
24250;DHT22;12379;49.820;8.648;2022-08-25T03:26:51;21.40;98.60
24250;DHT22;12379;49.820;8.648;2022-08-25T03:29:29;21.40;98.70
24250;DHT22;12379;49.820;8.648;2022-08-25T03:31:56;21.30;99.00
24250;DHT22;12379;49.820;8.648;2022-08-25T03:34:27;21.20;99.60
24250;DHT22;12379;49.820;8.648;2022-08-25T03:36:54;21.10;99.90
24250;DHT22;12379;49.820;8.648;2022-08-25T03:39:22;21.10;99.90
24250;DHT22;12379;49.820;8.648;2022-08-25T03:41:49;21.00;99.90
24250;DHT22;12379;49.820;8.648;2022-08-25T03:44:17;21.00;99.90
24250;DHT22;12379;49.820;8.648;2022-08-25T03:46:45;21.00;99.90
24250;DHT22;12379;49.820;8.648;2022-08-25T03:49:13;21.00;99.90
24250;DHT22;12379;49.820;8.648;2022-08-25T03:51:45;21.00;99.90
24250;DHT22;12379;49.820;8.648;2022-08-25T03:54:12;21.00;99.90
24250;DHT22;12379;49.820;8.648;2022-08-25T03:56:38;21.00;99.90
24250;DHT22;12379;49.820;8.648;2022-08-25T03:59:04;20.80;99.90
24250;DHT22;12379;49.820;8.648;2022-08-25T04:01:33;20.80;99.90
24250;DHT22;12379;49.820;8.648;2022-08-25T04:03:59;20.80;99.90
24250;DHT22;12379;49.820;8.648;2022-08-25T04:06:25;20.80;99.90
24250;DHT22;12379;49.820;8.648;2022-08-25T04:08:50;20.80;99.90
24250;DHT22;12379;49.820;8.648;2022-08-25T04:11:19;20.80;99.90
24250;DHT22;12379;49.820;8.648;2022-08-25T04:13:46;20.80;99.90
24250;DHT22;12379;49.820;8.648;2022-08-25T04:16:17;20.80;99.90
24250;DHT22;12379;49.820;8.648;2022-08-25T04:18:44;20.80;99.90
24250;DHT22;12379;49.820;8.648;2022-08-25T04:21:12;20.80;99.90
24250;DHT22;12379;49.820;8.648;2022-08-25T04:23:39;20.80;99.90
24250;DHT22;12379;49.820;8.648;2022-08-25T04:26:29;20.80;99.90
24250;DHT22;12379;49.820;8.648;2022-08-25T04:28:58;20.70;99.90
24250;DHT22;12379;49.820;8.648;2022-08-25T04:31:25;20.70;99.90
24250;DHT22;12379;49.820;8.648;2022-08-25T04:33:51;20.70;99.90
24250;DHT22;12379;49.820;8.648;2022-08-25T04:36:17;20.60;99.90
24250;DHT22;12379;49.820;8.648;2022-08-25T04:38:44;20.60;99.90
24250;DHT22;12379;49.820;8.648;2022-08-25T04:41:11;20.60;99.90
24250;DHT22;12379;49.820;8.648;2022-08-25T04:43:38;20.50;99.90
24250;DHT22;12379;49.820;8.648;2022-08-25T04:46:06;20.60;99.90
24250;DHT22;12379;49.820;8.648;2022-08-25T04:48:33;20.60;99.90
24250;DHT22;12379;49.820;8.648;2022-08-25T04:51:04;20.60;99.90
24250;DHT22;12379;49.820;8.648;2022-08-25T04:53:31;20.60;99.90
24250;DHT22;12379;49.820;8.648;2022-08-25T04:55:57;20.60;99.90
24250;DHT22;12379;49.820;8.648;2022-08-25T04:58:22;20.70;99.90
24250;DHT22;12379;49.820;8.648;2022-08-25T05:00:48;20.70;99.90
24250;DHT22;12379;49.820;8.648;2022-08-25T05:03:14;20.60;99.90
24250;DHT22;12379;49.820;8.648;2022-08-25T05:05:39;20.60;99.90
24250;DHT22;12379;49.820;8.648;2022-08-25T05:08:05;20.60;99.90
24250;DHT22;12379;49.820;8.648;2022-08-25T05:10:32;20.60;99.90
24250;DHT22;12379;49.820;8.648;2022-08-25T05:12:58;20.70;99.90
24250;DHT22;12379;49.820;8.648;2022-08-25T05:15:25;20.60;99.90
24250;DHT22;12379;49.820;8.648;2022-08-25T05:18:09;20.60;99.90
24250;DHT22;12379;49.820;8.648;2022-08-25T05:20:36;20.60;99.90
24250;DHT22;12379;49.820;8.648;2022-08-25T05:23:02;20.50;99.90
24250;DHT22;12379;49.820;8.648;2022-08-25T05:25:28;20.50;99.90
24250;DHT22;12379;49.820;8.648;2022-08-25T05:27:54;20.60;99.90
24250;DHT22;12379;49.820;8.648;2022-08-25T05:30:19;20.70;99.90
24250;DHT22;12379;49.820;8.648;2022-08-25T05:32:45;20.70;99.90
24250;DHT22;12379;49.820;8.648;2022-08-25T05:35:10;20.80;99.90
24250;DHT22;12379;49.820;8.648;2022-08-25T05:37:36;20.80;99.90
24250;DHT22;12379;49.820;8.648;2022-08-25T05:40:03;20.90;99.90
24250;DHT22;12379;49.820;8.648;2022-08-25T05:42:29;21.00;99.90
24250;DHT22;12379;49.820;8.648;2022-08-25T05:44:55;21.00;99.90
24250;DHT22;12379;49.820;8.648;2022-08-25T05:47:20;21.10;99.90
24250;DHT22;12379;49.820;8.648;2022-08-25T05:49:46;21.10;99.90
24250;DHT22;12379;49.820;8.648;2022-08-25T05:54:38;21.30;99.90
24250;DHT22;12379;49.820;8.648;2022-08-25T05:57:05;21.30;99.90
24250;DHT22;12379;49.820;8.648;2022-08-25T05:59:31;21.30;99.90
24250;DHT22;12379;49.820;8.648;2022-08-25T06:01:57;21.40;99.90
24250;DHT22;12379;49.820;8.648;2022-08-25T06:04:41;21.60;99.90
24250;DHT22;12379;49.820;8.648;2022-08-25T06:07:07;21.60;99.90
24250;DHT22;12379;49.820;8.648;2022-08-25T06:09:32;21.70;99.90
24250;DHT22;12379;49.820;8.648;2022-08-25T06:11:58;21.80;99.90
24250;DHT22;12379;49.820;8.648;2022-08-25T06:14:23;21.90;99.90
24250;DHT22;12379;49.820;8.648;2022-08-25T06:16:49;22.00;99.90
24250;DHT22;12379;49.820;8.648;2022-08-25T06:19:16;22.10;99.90
24250;DHT22;12379;49.820;8.648;2022-08-25T06:21:42;22.40;99.90
24250;DHT22;12379;49.820;8.648;2022-08-25T06:24:09;22.50;99.90
24250;DHT22;12379;49.820;8.648;2022-08-25T06:26:36;22.70;99.90
24250;DHT22;12379;49.820;8.648;2022-08-25T06:29:02;22.80;99.90
24250;DHT22;12379;49.820;8.648;2022-08-25T06:31:28;22.90;99.90
24250;DHT22;12379;49.820;8.648;2022-08-25T06:33:54;23.10;99.90
24250;DHT22;12379;49.820;8.648;2022-08-25T06:36:19;23.30;99.90
24250;DHT22;12379;49.820;8.648;2022-08-25T06:38:46;23.60;99.90
24250;DHT22;12379;49.820;8.648;2022-08-25T06:41:12;24.10;99.90
24250;DHT22;12379;49.820;8.648;2022-08-25T06:43:39;24.80;99.90
24250;DHT22;12379;49.820;8.648;2022-08-25T06:48:34;26.50;97.50
24250;DHT22;12379;49.820;8.648;2022-08-25T06:50:59;27.20;95.50
24250;DHT22;12379;49.820;8.648;2022-08-25T06:53:29;28.20;93.40
24250;DHT22;12379;49.820;8.648;2022-08-25T06:55:56;29.10;90.60
24250;DHT22;12379;49.820;8.648;2022-08-25T06:58:22;29.50;89.10
24250;DHT22;12379;49.820;8.648;2022-08-25T07:00:47;30.20;85.50
24250;DHT22;12379;49.820;8.648;2022-08-25T07:03:13;30.20;83.30
24250;DHT22;12379;49.820;8.648;2022-08-25T07:05:39;30.10;82.60
24250;DHT22;12379;49.820;8.648;2022-08-25T07:08:04;30.90;81.30
24250;DHT22;12379;49.820;8.648;2022-08-25T07:10:30;31.30;78.80
24250;DHT22;12379;49.820;8.648;2022-08-25T07:12:55;31.80;75.80
24250;DHT22;12379;49.820;8.648;2022-08-25T07:15:21;31.50;76.50
24250;DHT22;12379;49.820;8.648;2022-08-25T07:17:48;31.70;76.20
24250;DHT22;12379;49.820;8.648;2022-08-25T07:20:14;31.50;75.30
24250;DHT22;12379;49.820;8.648;2022-08-25T07:22:40;31.30;75.30
24250;DHT22;12379;49.820;8.648;2022-08-25T07:25:06;31.40;75.80
24250;DHT22;12379;49.820;8.648;2022-08-25T07:27:32;31.40;74.90
24250;DHT22;12379;49.820;8.648;2022-08-25T07:29:57;31.40;75.80
24250;DHT22;12379;49.820;8.648;2022-08-25T07:32:23;31.50;75.00
24250;DHT22;12379;49.820;8.648;2022-08-25T07:34:48;31.50;74.30
24250;DHT22;12379;49.820;8.648;2022-08-25T07:37:32;31.40;74.80
24250;DHT22;12379;49.820;8.648;2022-08-25T07:40:02;32.00;72.80
24250;DHT22;12379;49.820;8.648;2022-08-25T07:42:28;32.40;72.00
24250;DHT22;12379;49.820;8.648;2022-08-25T07:44:54;32.40;70.60
24250;DHT22;12379;49.820;8.648;2022-08-25T07:47:19;32.10;71.80
24250;DHT22;12379;49.820;8.648;2022-08-25T07:49:45;32.10;71.60
24250;DHT22;12379;49.820;8.648;2022-08-25T07:52:11;32.00;71.10
24250;DHT22;12379;49.820;8.648;2022-08-25T07:54:36;32.00;71.50
24250;DHT22;12379;49.820;8.648;2022-08-25T07:57:03;32.00;71.30
24250;DHT22;12379;49.820;8.648;2022-08-25T07:59:30;32.20;70.50
24250;DHT22;12379;49.820;8.648;2022-08-25T08:01:55;32.30;70.60
24250;DHT22;12379;49.820;8.648;2022-08-25T08:04:21;32.10;70.90
24250;DHT22;12379;49.820;8.648;2022-08-25T08:06:46;32.30;71.50
24250;DHT22;12379;49.820;8.648;2022-08-25T08:09:12;32.50;68.90
24250;DHT22;12379;49.820;8.648;2022-08-25T08:11:38;32.30;69.00
24250;DHT22;12379;49.820;8.648;2022-08-25T08:14:08;32.50;69.30
24250;DHT22;12379;49.820;8.648;2022-08-25T08:16:34;32.50;69.30
24250;DHT22;12379;49.820;8.648;2022-08-25T08:19:00;32.60;68.30
24250;DHT22;12379;49.820;8.648;2022-08-25T08:21:33;32.50;68.60
24250;DHT22;12379;49.820;8.648;2022-08-25T08:24:00;32.30;68.90
24250;DHT22;12379;49.820;8.648;2022-08-25T08:26:27;32.30;69.10
24250;DHT22;12379;49.820;8.648;2022-08-25T08:28:53;32.80;68.00
24250;DHT22;12379;49.820;8.648;2022-08-25T08:31:21;32.80;67.90
24250;DHT22;12379;49.820;8.648;2022-08-25T08:33:48;32.80;67.20
24250;DHT22;12379;49.820;8.648;2022-08-25T08:36:14;32.80;67.50
24250;DHT22;12379;49.820;8.648;2022-08-25T08:38:41;32.90;66.90
24250;DHT22;12379;49.820;8.648;2022-08-25T08:44:27;33.10;65.70
24250;DHT22;12379;49.820;8.648;2022-08-25T08:49:45;32.90;67.30
24250;DHT22;12379;49.820;8.648;2022-08-25T08:52:16;33.10;66.60
24250;DHT22;12379;49.820;8.648;2022-08-25T08:54:44;32.80;66.50
24250;DHT22;12379;49.820;8.648;2022-08-25T08:57:14;32.90;66.30
24250;DHT22;12379;49.820;8.648;2022-08-25T08:59:49;32.90;66.10
24250;DHT22;12379;49.820;8.648;2022-08-25T09:02:47;33.20;64.90
24250;DHT22;12379;49.820;8.648;2022-08-25T09:05:13;32.80;64.40
24250;DHT22;12379;49.820;8.648;2022-08-25T09:07:45;32.60;65.60
24250;DHT22;12379;49.820;8.648;2022-08-25T09:10:14;32.50;66.50
24250;DHT22;12379;49.820;8.648;2022-08-25T09:13:20;32.40;65.60
24250;DHT22;12379;49.820;8.648;2022-08-25T09:15:53;32.70;64.50
24250;DHT22;12379;49.820;8.648;2022-08-25T09:18:55;32.60;64.80
24250;DHT22;12379;49.820;8.648;2022-08-25T09:21:33;32.80;65.40
24250;DHT22;12379;49.820;8.648;2022-08-25T09:24:13;33.00;63.80
24250;DHT22;12379;49.820;8.648;2022-08-25T09:29:17;33.40;62.90
24250;DHT22;12379;49.820;8.648;2022-08-25T09:31:46;33.50;61.80
24250;DHT22;12379;49.820;8.648;2022-08-25T09:34:22;33.30;61.90
24250;DHT22;12379;49.820;8.648;2022-08-25T09:36:48;33.40;61.60
24250;DHT22;12379;49.820;8.648;2022-08-25T09:39:17;33.20;61.60
24250;DHT22;12379;49.820;8.648;2022-08-25T09:41:51;32.90;62.20
24250;DHT22;12379;49.820;8.648;2022-08-25T09:47:18;33.00;61.40
24250;DHT22;12379;49.820;8.648;2022-08-25T09:49:55;33.30;61.20
24250;DHT22;12379;49.820;8.648;2022-08-25T09:55:44;33.10;61.10
24250;DHT22;12379;49.820;8.648;2022-08-25T09:57:51;32.90;61.30
24250;DHT22;12379;49.820;8.648;2022-08-25T10:03:12;33.00;61.70
24250;DHT22;12379;49.820;8.648;2022-08-25T10:10:56;32.40;62.20
24250;DHT22;12379;49.820;8.648;2022-08-25T10:13:41;32.40;61.70
24250;DHT22;12379;49.820;8.648;2022-08-25T10:16:28;32.30;61.70
24250;DHT22;12379;49.820;8.648;2022-08-25T10:19:10;32.20;61.50
24250;DHT22;12379;49.820;8.648;2022-08-25T10:21:38;32.00;61.70
24250;DHT22;12379;49.820;8.648;2022-08-25T10:24:05;31.90;62.50
24250;DHT22;12379;49.820;8.648;2022-08-25T10:34:54;31.80;62.50
24250;DHT22;12379;49.820;8.648;2022-08-25T10:37:45;31.80;62.70
24250;DHT22;12379;49.820;8.648;2022-08-25T10:40:26;31.80;62.60
24250;DHT22;12379;49.820;8.648;2022-08-25T10:43:06;31.80;62.70
24250;DHT22;12379;49.820;8.648;2022-08-25T10:46:06;31.80;61.70
24250;DHT22;12379;49.820;8.648;2022-08-25T10:48:57;31.60;61.70
24250;DHT22;12379;49.820;8.648;2022-08-25T10:57:18;31.50;62.30
24250;DHT22;12379;49.820;8.648;2022-08-25T11:00:17;31.50;62.40
24250;DHT22;12379;49.820;8.648;2022-08-25T11:03:08;31.30;61.80
24250;DHT22;12379;49.820;8.648;2022-08-25T11:05:59;31.30;61.50
24250;DHT22;12379;49.820;8.648;2022-08-25T11:11:01;31.00;61.70
24250;DHT22;12379;49.820;8.648;2022-08-25T11:13:47;30.90;62.70
24250;DHT22;12379;49.820;8.648;2022-08-25T11:16:18;30.80;62.90
24250;DHT22;12379;49.820;8.648;2022-08-25T11:18:50;30.80;62.70
24250;DHT22;12379;49.820;8.648;2022-08-25T11:21:24;30.80;62.90
24250;DHT22;12379;49.820;8.648;2022-08-25T11:23:59;30.90;61.90
24250;DHT22;12379;49.820;8.648;2022-08-25T11:26:32;30.80;62.80
24250;DHT22;12379;49.820;8.648;2022-08-25T11:29:12;30.90;62.50
24250;DHT22;12379;49.820;8.648;2022-08-25T11:31:46;31.10;62.20
24250;DHT22;12379;49.820;8.648;2022-08-25T11:34:13;31.10;61.40
24250;DHT22;12379;49.820;8.648;2022-08-25T11:36:42;31.40;59.90
24250;DHT22;12379;49.820;8.648;2022-08-25T11:42:29;31.30;60.80
24250;DHT22;12379;49.820;8.648;2022-08-25T11:45:22;31.30;61.00
24250;DHT22;12379;49.820;8.648;2022-08-25T11:48:20;31.10;61.40
24250;DHT22;12379;49.820;8.648;2022-08-25T11:51:10;30.90;61.50
24250;DHT22;12379;49.820;8.648;2022-08-25T11:53:38;30.60;61.50
24250;DHT22;12379;49.820;8.648;2022-08-25T11:56:09;30.60;62.40
24250;DHT22;12379;49.820;8.648;2022-08-25T12:04:38;30.70;62.80
24250;DHT22;12379;49.820;8.648;2022-08-25T12:18:36;31.40;59.90
24250;DHT22;12379;49.820;8.648;2022-08-25T12:23:45;31.50;60.70
24250;DHT22;12379;49.820;8.648;2022-08-25T12:26:41;31.60;60.20
24250;DHT22;12379;49.820;8.648;2022-08-25T12:34:48;31.40;61.00
24250;DHT22;12379;49.820;8.648;2022-08-25T12:37:20;31.50;61.10
24250;DHT22;12379;49.820;8.648;2022-08-25T12:42:30;31.80;60.10
24250;DHT22;12379;49.820;8.648;2022-08-25T12:47:52;32.00;59.50
24250;DHT22;12379;49.820;8.648;2022-08-25T12:53:13;32.00;58.70
24250;DHT22;12379;49.820;8.648;2022-08-25T12:55:48;31.80;59.10
24250;DHT22;12379;49.820;8.648;2022-08-25T12:58:16;31.60;59.80
24250;DHT22;12379;49.820;8.648;2022-08-25T13:01:05;31.60;60.00
24250;DHT22;12379;49.820;8.648;2022-08-25T13:11:40;32.20;58.90
24250;DHT22;12379;49.820;8.648;2022-08-25T13:14:39;32.30;58.10
24250;DHT22;12379;49.820;8.648;2022-08-25T13:17:06;32.30;58.00
24250;DHT22;12379;49.820;8.648;2022-08-25T13:19:33;32.20;58.20
24250;DHT22;12379;49.820;8.648;2022-08-25T13:22:01;32.20;58.90
24250;DHT22;12379;49.820;8.648;2022-08-25T13:24:35;32.40;57.90
24250;DHT22;12379;49.820;8.648;2022-08-25T13:27:06;32.50;57.30
24250;DHT22;12379;49.820;8.648;2022-08-25T13:29:36;32.40;56.80
24250;DHT22;12379;49.820;8.648;2022-08-25T13:32:13;32.30;57.70
24250;DHT22;12379;49.820;8.648;2022-08-25T13:34:41;32.20;57.60
24250;DHT22;12379;49.820;8.648;2022-08-25T13:37:14;32.10;58.10
24250;DHT22;12379;49.820;8.648;2022-08-25T13:42:43;32.20;58.20
24250;DHT22;12379;49.820;8.648;2022-08-25T13:45:15;32.10;57.90
24250;DHT22;12379;49.820;8.648;2022-08-25T13:47:42;32.30;57.20
24250;DHT22;12379;49.820;8.648;2022-08-25T13:53:09;32.60;57.00
24250;DHT22;12379;49.820;8.648;2022-08-25T13:58:14;32.90;56.30
24250;DHT22;12379;49.820;8.648;2022-08-25T14:00:44;32.90;56.50
24250;DHT22;12379;49.820;8.648;2022-08-25T14:03:33;33.00;56.30
24250;DHT22;12379;49.820;8.648;2022-08-25T14:08:36;33.00;56.20
24250;DHT22;12379;49.820;8.648;2022-08-25T14:13:32;32.60;56.90
24250;DHT22;12379;49.820;8.648;2022-08-25T14:16:21;32.40;57.00
24250;DHT22;12379;49.820;8.648;2022-08-25T14:18:54;32.10;57.90
24250;DHT22;12379;49.820;8.648;2022-08-25T14:21:28;31.90;58.00
24250;DHT22;12379;49.820;8.648;2022-08-25T14:23:55;31.80;58.20
24250;DHT22;12379;49.820;8.648;2022-08-25T14:26:22;31.60;58.20
24250;DHT22;12379;49.820;8.648;2022-08-25T14:28:48;31.60;58.20
24250;DHT22;12379;49.820;8.648;2022-08-25T14:33:58;31.30;59.20
24250;DHT22;12379;49.820;8.648;2022-08-25T14:36:24;31.50;58.80
24250;DHT22;12379;49.820;8.648;2022-08-25T14:38:50;31.60;58.00
24250;DHT22;12379;49.820;8.648;2022-08-25T14:41:18;31.60;57.30
24250;DHT22;12379;49.820;8.648;2022-08-25T14:43:44;31.60;57.40
24250;DHT22;12379;49.820;8.648;2022-08-25T14:46:20;31.60;57.50
24250;DHT22;12379;49.820;8.648;2022-08-25T14:48:49;31.60;58.70
24250;DHT22;12379;49.820;8.648;2022-08-25T14:51:18;31.50;58.30
24250;DHT22;12379;49.820;8.648;2022-08-25T14:53:44;31.40;57.50
24250;DHT22;12379;49.820;8.648;2022-08-25T14:56:10;31.60;58.00
24250;DHT22;12379;49.820;8.648;2022-08-25T14:58:36;31.50;58.30
24250;DHT22;12379;49.820;8.648;2022-08-25T15:01:03;31.50;58.50
24250;DHT22;12379;49.820;8.648;2022-08-25T15:03:33;31.50;58.00
24250;DHT22;12379;49.820;8.648;2022-08-25T15:06:00;31.60;58.30
24250;DHT22;12379;49.820;8.648;2022-08-25T15:08:27;31.80;58.80
24250;DHT22;12379;49.820;8.648;2022-08-25T15:11:11;31.90;57.80
24250;DHT22;12379;49.820;8.648;2022-08-25T15:13:38;32.00;57.40
24250;DHT22;12379;49.820;8.648;2022-08-25T15:16:05;32.00;57.40
24250;DHT22;12379;49.820;8.648;2022-08-25T15:18:30;32.00;57.50
24250;DHT22;12379;49.820;8.648;2022-08-25T15:20:56;32.00;57.50
24250;DHT22;12379;49.820;8.648;2022-08-25T15:23:21;31.90;56.90
24250;DHT22;12379;49.820;8.648;2022-08-25T15:25:48;31.60;57.60
24250;DHT22;12379;49.820;8.648;2022-08-25T15:28:15;31.50;57.60
24250;DHT22;12379;49.820;8.648;2022-08-25T15:30:41;31.20;58.60
24250;DHT22;12379;49.820;8.648;2022-08-25T15:33:07;31.00;58.90
24250;DHT22;12379;49.820;8.648;2022-08-25T15:35:33;30.90;58.20
24250;DHT22;12379;49.820;8.648;2022-08-25T15:37:59;30.80;58.40
24250;DHT22;12379;49.820;8.648;2022-08-25T15:40:27;30.80;58.70
24250;DHT22;12379;49.820;8.648;2022-08-25T15:42:52;30.80;59.00
24250;DHT22;12379;49.820;8.648;2022-08-25T15:45:18;30.70;58.80
24250;DHT22;12379;49.820;8.648;2022-08-25T15:47:44;30.70;58.70
24250;DHT22;12379;49.820;8.648;2022-08-25T15:50:13;30.70;58.90
24250;DHT22;12379;49.820;8.648;2022-08-25T15:52:40;30.70;58.80
24250;DHT22;12379;49.820;8.648;2022-08-25T15:55:06;30.80;59.00
24250;DHT22;12379;49.820;8.648;2022-08-25T15:57:33;30.70;59.40
24250;DHT22;12379;49.820;8.648;2022-08-25T15:59:58;30.60;60.70
24250;DHT22;12379;49.820;8.648;2022-08-25T16:02:24;30.60;60.50
24250;DHT22;12379;49.820;8.648;2022-08-25T16:04:50;30.60;59.90
24250;DHT22;12379;49.820;8.648;2022-08-25T16:07:17;30.80;59.30
24250;DHT22;12379;49.820;8.648;2022-08-25T16:09:43;30.80;59.30
24250;DHT22;12379;49.820;8.648;2022-08-25T16:12:09;30.90;59.00
24250;DHT22;12379;49.820;8.648;2022-08-25T16:14:36;31.00;58.30
24250;DHT22;12379;49.820;8.648;2022-08-25T16:17:01;31.10;58.30
24250;DHT22;12379;49.820;8.648;2022-08-25T16:19:27;31.20;57.80
24250;DHT22;12379;49.820;8.648;2022-08-25T16:21:53;31.20;57.50
24250;DHT22;12379;49.820;8.648;2022-08-25T16:24:19;31.20;57.60
24250;DHT22;12379;49.820;8.648;2022-08-25T16:26:44;31.00;58.50
24250;DHT22;12379;49.820;8.648;2022-08-25T16:29:12;31.00;57.90
24250;DHT22;12379;49.820;8.648;2022-08-25T16:31:39;31.00;58.80
24250;DHT22;12379;49.820;8.648;2022-08-25T16:34:05;31.00;58.40
24250;DHT22;12379;49.820;8.648;2022-08-25T16:36:32;31.10;57.90
24250;DHT22;12379;49.820;8.648;2022-08-25T16:38:57;31.00;58.10
24250;DHT22;12379;49.820;8.648;2022-08-25T16:41:27;30.90;58.40
24250;DHT22;12379;49.820;8.648;2022-08-25T16:43:59;30.90;58.90
24250;DHT22;12379;49.820;8.648;2022-08-25T16:46:24;30.80;58.50
24250;DHT22;12379;49.820;8.648;2022-08-25T16:48:51;30.80;58.90
24250;DHT22;12379;49.820;8.648;2022-08-25T16:51:19;30.80;58.20
24250;DHT22;12379;49.820;8.648;2022-08-25T16:53:45;30.80;58.70
24250;DHT22;12379;49.820;8.648;2022-08-25T16:56:32;30.70;59.00
24250;DHT22;12379;49.820;8.648;2022-08-25T16:58:59;30.60;59.00
24250;DHT22;12379;49.820;8.648;2022-08-25T17:01:27;30.50;58.80
24250;DHT22;12379;49.820;8.648;2022-08-25T17:03:54;30.50;59.00
24250;DHT22;12379;49.820;8.648;2022-08-25T17:06:21;30.50;59.00
24250;DHT22;12379;49.820;8.648;2022-08-25T17:08:47;30.50;58.50
24250;DHT22;12379;49.820;8.648;2022-08-25T17:11:19;30.50;58.70
24250;DHT22;12379;49.820;8.648;2022-08-25T17:13:48;30.40;58.60
24250;DHT22;12379;49.820;8.648;2022-08-25T17:16:14;30.40;59.10
24250;DHT22;12379;49.820;8.648;2022-08-25T17:18:41;30.30;59.40
24250;DHT22;12379;49.820;8.648;2022-08-25T17:21:09;30.20;59.60
24250;DHT22;12379;49.820;8.648;2022-08-25T17:23:37;30.20;59.10
24250;DHT22;12379;49.820;8.648;2022-08-25T17:26:04;30.20;59.10
24250;DHT22;12379;49.820;8.648;2022-08-25T17:28:30;30.20;59.40
24250;DHT22;12379;49.820;8.648;2022-08-25T17:30:56;30.10;60.00